Time;durP1;ratioP1;P1;durP2;ratioP2;P2;SDS_P1;SDS_P2;PMS_P1;PMS_P2;Temp;Humidity;BMP_temperature;BMP_pressure;BME280_temperature;BME280_humidity;BME280_pressure;Samples;Min_cycle;Max_cycle;Signal;HPM_P1;HPM_P2
2023/08/07 00:02:01;;;;;;;3.33;0.90;;;;;;;14.34;55.58;100721.84;4994206;28;20107;-70
2023/08/07 00:04:28;;;;;;;5.97;1.90;;;;;;;14.35;55.79;100723.53;4989953;28;20087;-70
2023/08/07 00:06:53;;;;;;;2.15;1.02;;;;;;;14.46;55.40;100724.72;4989625;28;20038;-70
2023/08/07 00:09:19;;;;;;;4.03;1.05;;;;;;;14.51;55.22;100727.91;4989644;28;20078;-71
2023/08/07 00:11:44;;;;;;;3.50;0.90;;;;;;;14.58;55.03;100731.88;4989679;28;20347;-71
2023/08/07 00:14:09;;;;;;;4.10;0.60;;;;;;;14.58;54.92;100728.41;5006755;28;20238;-71
2023/08/07 00:16:35;;;;;;;7.00;1.13;;;;;;;14.55;54.84;100726.81;4989124;28;20179;-71
2023/08/07 00:19:02;;;;;;;6.28;0.90;;;;;;;14.56;54.86;100720.59;4993112;28;20411;-70
2023/08/07 00:21:28;;;;;;;4.93;0.77;;;;;;;14.54;54.86;100725.09;4988757;28;20030;-70
2023/08/07 00:23:54;;;;;;;3.55;0.80;;;;;;;14.52;54.79;100726.97;4988700;28;20038;-70
2023/08/07 00:26:20;;;;;;;5.50;1.00;;;;;;;14.51;54.73;100734.03;4990135;28;20049;-70
2023/08/07 00:28:46;;;;;;;3.78;1.52;;;;;;;14.42;55.18;100723.22;5004822;28;20049;-69
2023/08/07 00:31:12;;;;;;;1.63;0.77;;;;;;;14.38;55.34;100716.41;4994546;28;20046;-67
2023/08/07 00:33:39;;;;;;;6.70;0.77;;;;;;;14.42;55.17;100715.31;4999004;28;20044;-67
2023/08/07 00:36:04;;;;;;;4.43;0.98;;;;;;;14.51;55.17;100717.41;4989820;28;20034;-68
2023/08/07 00:38:30;;;;;;;1.42;0.63;;;;;;;14.55;54.80;100718.91;4989260;28;20213;-68
2023/08/07 00:40:55;;;;;;;2.90;0.85;;;;;;;14.54;54.78;100711.94;4988607;28;20164;-68
2023/08/07 00:43:21;;;;;;;3.55;1.00;;;;;;;14.54;54.84;100718.06;4985522;28;20049;-67
2023/08/07 00:45:47;;;;;;;6.78;1.33;;;;;;;14.24;55.41;100717.22;4990507;28;20546;-72
2023/08/07 00:48:14;;;;;;;2.97;0.98;;;;;;;14.50;55.11;100719.19;4989902;28;20042;-71
2023/08/07 00:50:42;;;;;;;7.32;0.90;;;;;;;14.31;54.63;100716.75;4987383;28;20030;-70
2023/08/07 00:53:08;;;;;;;3.28;0.85;;;;;;;14.28;54.88;100718.72;4993251;28;20112;-69
2023/08/07 00:55:34;;;;;;;4.10;1.17;;;;;;;14.28;54.99;100718.72;4989463;28;20041;-66
2023/08/07 00:58:00;;;;;;;5.80;0.98;;;;;;;14.29;54.85;100721.25;4994587;28;20045;-69
2023/08/07 01:00:28;;;;;;;1.23;0.45;;;;;;;14.25;55.03;100726.78;4990869;28;20531;-68
2023/08/07 01:02:56;;;;;;;5.60;1.05;;;;;;;14.21;54.74;100734.00;5004726;28;20052;-75
2023/08/07 01:05:25;;;;;;;3.63;0.90;;;;;;;14.22;54.60;100727.81;4993144;28;20037;-67
2023/08/07 01:07:54;;;;;;;4.45;0.40;;;;;;;14.18;54.44;100721.03;4987386;28;20072;-67
2023/08/07 01:10:35;;;;;;;5.75;0.77;;;;;;;14.14;54.57;100720.38;5005379;28;20107;-66
2023/08/07 01:13:13;;;;;;;2.43;0.70;;;;;;;14.10;54.70;100723.25;4987152;28;20501;-67
2023/08/07 01:15:39;;;;;;;1.58;0.60;;;;;;;14.06;54.71;100721.75;4972394;28;20045;-66
2023/08/07 01:18:07;;;;;;;2.38;0.40;;;;;;;14.03;54.70;100717.50;4993127;28;20192;-66
2023/08/07 01:20:33;;;;;;;1.48;0.65;;;;;;;14.04;54.95;100721.81;4986401;28;20485;-66
2023/08/07 01:22:58;;;;;;;9.85;1.20;;;;;;;14.09;54.62;100711.03;4987430;28;20038;-66
2023/08/07 01:25:24;;;;;;;3.85;0.57;;;;;;;14.14;54.56;100714.25;5002635;28;20516;-66
2023/08/07 01:28:17;;;;;;;2.30;0.30;;;;;;;14.21;54.22;100720.00;4986630;28;20742;-66
2023/08/07 01:30:49;;;;;;;3.47;0.50;;;;;;;14.08;54.37;100714.63;4991053;28;20096;-66
2023/08/07 01:33:25;;;;;;;8.75;0.40;;;;;;;14.23;54.28;100713.75;4987485;28;20265;-65
2023/08/07 01:35:55;;;;;;;2.63;0.40;;;;;;;14.26;54.00;100721.44;4969085;28;20033;-66
2023/08/07 01:38:25;;;;;;;3.13;0.55;;;;;;;14.39;53.75;100712.81;4989033;28;20275;-66
2023/08/07 01:40:51;;;;;;;4.00;0.60;;;;;;;14.35;53.82;100713.00;4986182;28;20032;-67
2023/08/07 01:43:19;;;;;;;3.17;0.60;;;;;;;14.36;53.68;100712.06;4989731;28;20045;-67
2023/08/07 01:45:45;;;;;;;4.68;0.52;;;;;;;14.28;54.06;100709.06;4989394;28;20026;-66
2023/08/07 01:48:11;;;;;;;1.98;0.40;;;;;;;14.39;54.09;100707.56;5005882;28;20141;-68
2023/08/07 01:50:38;;;;;;;1.77;0.30;;;;;;;14.34;54.12;100707.81;4985686;28;20026;-67
2023/08/07 01:53:04;;;;;;;1.25;0.60;;;;;;;14.28;54.73;100714.31;4991633;28;20045;-65
2023/08/07 01:55:29;;;;;;;4.70;0.50;;;;;;;14.42;54.41;100710.06;4990312;28;20044;-67
2023/08/07 01:57:55;;;;;;;3.88;0.60;;;;;;;14.53;54.48;100712.91;4988498;28;20068;-66
2023/08/07 02:00:20;;;;;;;2.65;0.60;;;;;;;14.51;54.80;100706.88;4991365;28;20037;-67
2023/08/07 02:02:46;;;;;;;3.22;0.45;;;;;;;14.40;55.31;100706.63;4986516;28;20041;-66
2023/08/07 02:05:13;;;;;;;3.65;0.55;;;;;;;14.31;56.01;100700.13;4993931;28;20048;-66
2023/08/07 02:07:39;;;;;;;2.78;0.50;;;;;;;14.02;56.66;100713.19;4984373;28;20070;-67
2023/08/07 02:10:05;;;;;;;2.78;0.98;;;;;;;14.04;57.12;100711.31;4991230;28;20463;-66
2023/08/07 02:12:33;;;;;;;4.95;0.75;;;;;;;13.55;58.18;100721.91;4991212;28;20045;-67
2023/08/07 02:14:59;;;;;;;6.43;0.60;;;;;;;13.67;57.81;100721.28;4987869;28;20061;-65
2023/08/07 02:17:27;;;;;;;2.20;0.32;;;;;;;13.39;57.70;100736.81;4988284;28;20467;-66
2023/08/07 02:19:53;;;;;;;3.10;0.45;;;;;;;13.38;57.87;100735.09;4998223;28;20366;-64
2023/08/07 02:22:18;;;;;;;6.95;1.25;;;;;;;13.28;57.65;100740.00;4985813;28;20048;-63
2023/08/07 02:24:44;;;;;;;5.55;0.57;;;;;;;13.00;58.69;100751.94;4986561;28;20030;-63
2023/08/07 02:27:10;;;;;;;4.30;0.65;;;;;;;12.80;58.71;100749.50;4992590;28;20117;-65
2023/08/07 02:29:36;;;;;;;0.93;0.30;;;;;;;12.51;59.64;100749.19;4970392;28;20038;-64
2023/08/07 02:32:02;;;;;;;4.57;0.65;;;;;;;12.38;59.81;100750.72;4991648;28;20040;-65
2023/08/07 02:34:31;;;;;;;1.25;0.30;;;;;;;12.23;60.04;100744.47;4986346;28;20057;-64
2023/08/07 02:36:58;;;;;;;1.50;0.30;;;;;;;12.24;59.84;100741.75;4988715;28;20510;-63
2023/08/07 02:39:24;;;;;;;2.58;0.30;;;;;;;12.03;60.26;100758.53;4987861;28;20065;-65
2023/08/07 02:41:50;;;;;;;5.25;0.60;;;;;;;12.11;59.80;100761.66;5000371;28;20049;-64
2023/08/07 02:44:17;;;;;;;5.50;1.50;;;;;;;11.93;60.24;100758.13;4992328;28;20358;-65
2023/08/07 02:46:43;;;;;;;3.60;0.68;;;;;;;12.06;59.72;100753.16;5002600;28;20101;-66
2023/08/07 02:49:08;;;;;;;3.55;0.22;;;;;;;11.90;60.11;100754.81;5003523;28;20049;-64
2023/08/07 02:51:34;;;;;;;2.65;0.73;;;;;;;12.14;59.34;100761.50;4988160;28;21480;-65
2023/08/07 02:53:59;;;;;;;2.17;0.43;;;;;;;11.59;61.42;100764.06;4986409;28;20056;-64
2023/08/07 02:56:24;;;;;;;2.00;0.50;;;;;;;11.74;61.14;100758.13;5005429;28;20290;-66
2023/08/07 02:58:50;;;;;;;1.38;0.35;;;;;;;11.68;61.50;100747.91;4989963;28;20301;-65
2023/08/07 03:01:15;;;;;;;4.43;0.52;;;;;;;11.63;61.49;100742.91;4990150;28;20113;-64
2023/08/07 03:03:41;;;;;;;6.88;0.82;;;;;;;11.91;60.73;100740.78;4972546;28;20049;-64
2023/08/07 03:06:06;;;;;;;6.47;0.50;;;;;;;11.90;60.94;100737.31;4976234;28;20546;-66
2023/08/07 03:08:32;;;;;;;7.40;0.45;;;;;;;12.25;60.24;100740.00;4992387;28;20103;-65
2023/08/07 03:10:58;;;;;;;3.63;0.47;;;;;;;12.20;60.26;100737.63;4999742;28;20399;-75
2023/08/07 03:13:25;;;;;;;8.57;0.80;;;;;;;11.95;61.26;100737.09;4987575;28;20088;-67
2023/08/07 03:16:01;;;;;;;7.20;0.73;;;;;;;12.26;60.52;100741.69;4991253;28;20042;-66
2023/08/07 03:18:27;;;;;;;10.35;1.20;;;;;;;12.37;60.11;100738.56;4989388;28;20496;-66
2023/08/07 03:20:54;;;;;;;10.00;1.13;;;;;;;12.34;60.44;100736.09;5004959;28;21169;-66
2023/08/07 03:23:19;;;;;;;5.75;1.15;;;;;;;12.42;60.18;100744.41;4992812;28;20069;-66
2023/08/07 03:25:45;;;;;;;4.43;0.60;;;;;;;12.10;60.95;100735.53;4991969;28;20053;-68
2023/08/07 03:28:11;;;;;;;6.45;0.88;;;;;;;12.00;61.17;100733.34;4990809;28;20038;-68
2023/08/07 03:30:37;;;;;;;4.65;1.13;;;;;;;11.95;61.56;100735.31;4993265;28;20041;-70
2023/08/07 03:33:04;;;;;;;1.77;0.28;;;;;;;12.18;60.98;100739.47;5006327;28;20204;-70
2023/08/07 03:35:32;;;;;;;2.08;0.40;;;;;;;12.08;61.24;100736.44;4993244;28;20091;-69
2023/08/07 03:37:59;;;;;;;8.82;0.80;;;;;;;12.33;60.64;100735.22;5006394;28;20062;-70
2023/08/07 03:40:25;;;;;;;8.82;0.20;;;;;;;12.22;60.88;100738.41;4974610;28;20269;-69
2023/08/07 03:42:51;;;;;;;4.18;0.25;;;;;;;11.95;60.93;100737.09;4993215;28;20065;-70
2023/08/07 03:45:16;;;;;;;5.03;0.45;;;;;;;11.76;60.73;100739.72;4988948;28;20057;-70
2023/08/07 03:47:42;;;;;;;2.13;0.13;;;;;;;11.98;59.97;100729.13;4992025;28;20038;-67
2023/08/07 03:50:07;;;;;;;10.15;0.93;;;;;;;11.99;59.77;100730.78;4991937;28;20034;-67
2023/08/07 03:52:33;;;;;;;5.85;0.25;;;;;;;11.88;59.70;100733.91;4990345;28;20614;-68
2023/08/07 03:54:59;;;;;;;9.05;0.38;;;;;;;11.98;59.44;100735.19;4992037;28;20030;-68
2023/08/07 03:57:25;;;;;;;0.68;0.20;;;;;;;12.06;59.22;100734.81;5008326;28;20255;-69
2023/08/07 03:59:50;;;;;;;2.53;0.10;;;;;;;12.19;59.31;100738.53;4986667;28;20503;-72
2023/08/07 04:02:16;;;;;;;4.97;0.57;;;;;;;12.34;58.98;100736.94;4988437;28;20510;-72
2023/08/07 04:04:42;;;;;;;10.30;0.85;;;;;;;12.27;59.12;100725.06;4993370;28;20080;-71
2023/08/07 04:07:07;;;;;;;5.85;0.30;;;;;;;12.27;59.27;100725.91;4970434;28;20034;-72
2023/08/07 04:09:33;;;;;;;5.07;0.20;;;;;;;12.36;59.20;100721.16;4990374;28;20030;-70
2023/08/07 04:11:59;;;;;;;5.97;1.05;;;;;;;12.37;59.06;100725.44;4991591;28;20516;-70
2023/08/07 04:14:24;;;;;;;4.00;1.17;;;;;;;12.43;59.06;100719.91;5005061;28;20092;-68
2023/08/07 04:16:50;;;;;;;1.92;0.38;;;;;;;12.21;59.31;100723.59;5008110;28;20033;-69
2023/08/07 04:19:15;;;;;;;6.32;0.75;;;;;;;12.42;59.01;100728.69;5002482;28;20815;-68
2023/08/07 04:21:41;;;;;;;3.75;0.25;;;;;;;12.34;58.96;100730.84;4995006;28;20033;-68
2023/08/07 04:24:10;;;;;;;1.88;0.13;;;;;;;12.22;59.26;100732.28;4984395;28;20190;-67
2023/08/07 04:26:37;;;;;;;1.65;0.20;;;;;;;12.13;58.98;100730.97;4991838;28;20030;-67
2023/08/07 04:29:03;;;;;;;1.63;0.10;;;;;;;12.42;58.85;100724.31;4971242;28;20042;-68
2023/08/07 04:31:31;;;;;;;3.50;0.60;;;;;;;12.42;58.93;100729.53;4989610;28;20060;-69
2023/08/07 04:33:57;;;;;;;2.67;0.50;;;;;;;12.25;59.45;100735.63;4973070;28;20052;-69
2023/08/07 04:36:23;;;;;;;0.63;0.10;;;;;;;12.60;58.92;100743.50;4991772;28;20026;-69
2023/08/07 04:38:49;;;;;;;3.08;0.60;;;;;;;12.70;58.42;100744.75;4989719;28;20048;-69
2023/08/07 04:41:15;;;;;;;6.00;0.50;;;;;;;12.68;58.50;100751.81;4989445;28;20091;-68
2023/08/07 04:43:42;;;;;;;5.80;0.75;;;;;;;12.64;58.64;100755.50;4988331;28;20412;-67
2023/08/07 04:46:09;;;;;;;4.05;0.50;;;;;;;12.80;58.19;100749.50;4995408;28;20025;-71
2023/08/07 04:48:37;;;;;;;5.05;0.45;;;;;;;12.80;58.37;100752.13;4987775;28;20763;-68
2023/08/07 04:51:03;;;;;;;3.58;0.43;;;;;;;12.65;58.89;100751.97;4972462;28;20237;-68
2023/08/07 04:53:28;;;;;;;5.30;1.27;;;;;;;12.66;58.24;100748.41;5003888;28;20431;-67
2023/08/07 04:55:54;;;;;;;13.27;1.38;;;;;;;12.68;57.99;100757.06;4988598;28;20516;-67
2023/08/07 04:58:19;;;;;;;6.35;1.17;;;;;;;12.67;57.80;100752.75;4989408;28;20081;-69
2023/08/07 05:00:45;;;;;;;9.13;1.75;;;;;;;12.79;57.60;100753.06;4992233;28;20523;-65
2023/08/07 05:03:10;;;;;;;5.93;1.35;;;;;;;13.06;56.60;100758.66;4989845;28;20046;-65
2023/08/07 05:05:36;;;;;;;10.60;1.27;;;;;;;13.01;56.62;100751.03;4987788;28;20501;-66
2023/08/07 05:08:02;;;;;;;11.38;1.77;;;;;;;12.99;56.92;100745.03;5007601;28;20061;-65
2023/08/07 05:10:27;;;;;;;9.80;1.33;;;;;;;13.26;56.66;100737.47;4989326;28;20525;-66
2023/08/07 05:12:55;;;;;;;10.95;0.90;;;;;;;13.22;56.47;100743.78;5006928;28;20057;-68
2023/08/07 05:15:25;;;;;;;4.68;1.38;;;;;;;13.24;56.51;100776.06;4991883;28;20220;-71
2023/08/07 05:17:51;;;;;;;14.35;2.30;;;;;;;12.27;59.28;100772.25;4985780;28;20053;-66
2023/08/07 05:20:17;;;;;;;10.57;2.70;;;;;;;12.21;60.06;100765.50;5005653;28;20039;-64
2023/08/07 05:22:43;;;;;;;10.82;2.38;;;;;;;12.12;60.71;100771.19;4987278;28;20065;-66
2023/08/07 05:25:09;;;;;;;6.63;1.77;;;;;;;12.07;61.01;100771.41;4993382;28;20034;-67
2023/08/07 05:27:35;;;;;;;21.55;3.40;;;;;;;11.94;61.27;100774.69;4983808;28;20058;-65
2023/08/07 05:30:01;;;;;;;16.20;3.22;;;;;;;12.22;61.04;100775.09;4992219;28;20401;-65
2023/08/07 05:32:26;;;;;;;16.33;2.45;;;;;;;12.39;60.08;100770.78;4988373;28;20041;-65
2023/08/07 05:34:52;;;;;;;13.70;2.20;;;;;;;12.20;59.96;100776.94;4991467;28;20411;-67
2023/08/07 05:37:17;;;;;;;12.23;2.03;;;;;;;12.50;58.97;100776.34;4990735;28;20038;-67
2023/08/07 05:39:43;;;;;;;14.77;2.95;;;;;;;12.44;58.51;100776.63;4988736;28;20484;-69
2023/08/07 05:42:10;;;;;;;10.70;1.63;;;;;;;12.38;57.77;100780.41;4991851;28;20574;-67
2023/08/07 05:44:35;;;;;;;14.82;1.95;;;;;;;11.81;57.92;100784.91;4990183;28;20033;-70
2023/08/07 05:47:01;;;;;;;5.88;1.98;;;;;;;12.20;57.38;100790.03;4990565;28;20026;-69
2023/08/07 05:49:26;;;;;;;11.38;1.75;;;;;;;12.37;56.39;100790.97;4987754;28;20042;-68
2023/08/07 05:51:52;;;;;;;7.60;1.40;;;;;;;12.42;56.17;100789.84;4991021;28;20030;-67
2023/08/07 05:54:17;;;;;;;8.75;2.13;;;;;;;12.24;56.44;100796.78;4987838;28;20045;-67
2023/08/07 05:56:43;;;;;;;11.77;2.35;;;;;;;12.33;56.53;100789.41;4991827;28;20034;-68
2023/08/07 05:59:08;;;;;;;13.07;2.22;;;;;;;12.09;56.18;100784.44;4968157;28;20408;-67
2023/08/07 06:01:34;;;;;;;8.82;1.30;;;;;;;12.36;55.92;100791.91;4988882;28;20040;-64
2023/08/07 06:04:00;;;;;;;12.38;2.28;;;;;;;12.18;55.39;100788.38;4989252;28;20261;-67
2023/08/07 06:06:28;;;;;;;7.63;1.65;;;;;;;12.21;55.30;100798.72;4987710;28;20022;-66
2023/08/07 06:08:56;;;;;;;5.90;1.10;;;;;;;12.45;55.13;100805.41;4991932;28;20115;-66
2023/08/07 06:11:22;;;;;;;7.07;1.73;;;;;;;12.56;55.05;100804.00;5001481;28;20045;-66
2023/08/07 06:13:48;;;;;;;4.28;0.68;;;;;;;12.50;54.72;100799.94;4998408;28;20042;-66
2023/08/07 06:16:14;;;;;;;9.57;1.45;;;;;;;12.56;54.72;100794.38;4990448;28;20045;-74
2023/08/07 06:18:40;;;;;;;7.13;1.13;;;;;;;12.35;54.88;100803.28;5000138;28;20061;-65
2023/08/07 06:21:06;;;;;;;10.82;1.33;;;;;;;12.56;53.71;100797.00;4972318;28;20095;-66
2023/08/07 06:23:38;;;;;;;8.32;1.48;;;;;;;12.36;53.37;100792.75;4998594;28;20049;-66
2023/08/07 06:26:08;;;;;;;11.18;1.90;;;;;;;13.07;52.47;100799.69;5002328;28;20467;-67
2023/08/07 06:28:36;;;;;;;13.57;1.65;;;;;;;13.15;51.87;100807.19;4984448;28;20041;-64
2023/08/07 06:31:07;;;;;;;7.30;0.80;;;;;;;12.55;52.92;100811.03;4994561;28;20404;-66
2023/08/07 06:33:35;;;;;;;6.80;1.35;;;;;;;12.76;52.66;100800.41;4983418;28;20049;-64
2023/08/07 06:36:02;;;;;;;8.65;0.90;;;;;;;13.70;50.96;100799.06;5011770;28;20404;-65
2023/08/07 06:38:27;;;;;;;8.73;0.82;;;;;;;14.20;48.94;100791.91;4974338;28;20038;-66
2023/08/07 06:40:53;;;;;;;7.68;0.77;;;;;;;13.61;49.79;100804.81;4994821;28;20142;-66
2023/08/07 06:43:19;;;;;;;8.18;0.70;;;;;;;15.30;45.96;100795.13;4988142;28;20135;-65
2023/08/07 06:45:52;;;;;;;13.90;1.50;;;;;;;16.30;44.11;100787.06;5005835;28;20031;-65
2023/08/07 06:48:18;;;;;;;16.45;2.00;;;;;;;15.01;46.46;100802.97;5006699;28;20037;-65
2023/08/07 06:50:44;;;;;;;7.53;1.08;;;;;;;14.46;48.33;100814.13;4991116;28;20041;-66
2023/08/07 06:53:09;;;;;;;5.75;0.95;;;;;;;14.48;48.87;100813.09;4992226;28;20542;-65
2023/08/07 06:55:35;;;;;;;7.68;1.02;;;;;;;14.59;48.07;100812.50;4986974;28;20049;-65
2023/08/07 06:58:00;;;;;;;6.35;0.75;;;;;;;16.88;43.84;100802.63;4994791;28;20204;-65
2023/08/07 07:00:26;;;;;;;7.45;1.08;;;;;;;18.05;39.66;100792.63;4985809;28;20069;-67
2023/08/07 07:02:51;;;;;;;5.38;0.90;;;;;;;15.79;43.49;100802.63;4993995;28;20474;-68
2023/08/07 07:05:17;;;;;;;5.35;0.68;;;;;;;15.09;45.87;100803.38;4991062;28;20088;-66
2023/08/07 07:07:42;;;;;;;5.32;0.70;;;;;;;14.75;46.29;100804.53;4991810;28;20148;-69
2023/08/07 07:10:08;;;;;;;7.50;1.27;;;;;;;14.60;46.55;100816.78;4994484;28;20061;-69
2023/08/07 07:12:33;;;;;;;6.50;0.60;;;;;;;14.36;47.25;100822.47;4986721;28;21149;-67
2023/08/07 07:14:59;;;;;;;7.43;0.63;;;;;;;14.52;44.63;100816.38;4990731;28;20210;-68
2023/08/07 07:17:24;;;;;;;7.68;0.85;;;;;;;15.29;43.77;100814.53;4989370;28;20072;-67
2023/08/07 07:19:50;;;;;;;8.50;1.08;;;;;;;14.95;44.92;100817.38;4988175;28;20126;-67
2023/08/07 07:22:16;;;;;;;7.78;0.50;;;;;;;14.50;45.24;100810.38;4989939;28;20033;-68
2023/08/07 07:24:42;;;;;;;12.20;1.13;;;;;;;14.27;45.43;100814.28;4989766;28;20030;-68
2023/08/07 07:27:07;;;;;;;2.83;0.52;;;;;;;14.36;45.17;100811.97;4990511;28;20518;-69
2023/08/07 07:29:33;;;;;;;8.68;1.10;;;;;;;14.03;47.08;100833.13;4987906;28;20145;-68
2023/08/07 07:31:59;;;;;;;9.82;1.00;;;;;;;13.52;49.54;100840.25;4990436;28;20041;-68
2023/08/07 07:34:24;;;;;;;12.65;2.55;;;;;;;13.07;52.71;100845.19;5002844;28;20044;-68
2023/08/07 07:36:50;;;;;;;10.18;2.00;;;;;;;13.04;52.20;100841.84;4989961;28;20400;-68
2023/08/07 07:39:17;;;;;;;11.18;1.33;;;;;;;13.19;52.62;100851.56;4989739;28;20505;-67
2023/08/07 07:41:42;;;;;;;8.77;0.93;;;;;;;13.11;51.70;100843.22;4992315;28;20125;-70
2023/08/07 07:44:08;;;;;;;10.32;1.42;;;;;;;13.96;51.12;100851.94;5005985;28;20128;-67
2023/08/07 07:46:34;;;;;;;16.25;1.35;;;;;;;14.33;49.11;100846.34;4986695;28;21644;-69
2023/08/07 07:49:00;;;;;;;2.47;0.80;;;;;;;14.31;49.11;100849.97;4993000;28;20507;-67
2023/08/07 07:51:26;;;;;;;13.80;2.45;;;;;;;13.53;50.20;100866.41;4989649;28;20033;-68
2023/08/07 07:53:52;;;;;;;4.53;0.90;;;;;;;12.77;52.45;100880.81;4987902;28;20037;-68
2023/08/07 07:56:18;;;;;;;6.82;1.08;;;;;;;12.76;52.50;100871.22;4991627;28;20572;-68
2023/08/07 07:58:44;;;;;;;15.32;1.27;;;;;;;12.76;52.87;100879.09;4971530;28;20137;-65
2023/08/07 08:01:11;;;;;;;8.45;1.33;;;;;;;13.08;51.97;100895.88;4993969;28;20121;-66
2023/08/07 08:03:36;;;;;;;10.70;1.08;;;;;;;12.80;51.69;100878.88;4986514;28;20341;-65
2023/08/07 08:06:03;;;;;;;10.10;1.88;;;;;;;13.51;49.97;100898.91;4993572;28;20026;-68
2023/08/07 08:08:28;;;;;;;4.07;1.00;;;;;;;13.38;48.41;100888.19;4982212;28;20057;-67
2023/08/07 08:10:54;;;;;;;7.60;1.45;;;;;;;13.90;47.31;100890.75;4992562;28;20034;-67
2023/08/07 08:13:20;;;;;;;8.73;0.73;;;;;;;14.12;45.84;100895.69;4986165;28;20042;-68
2023/08/07 08:15:45;;;;;;;5.00;1.50;;;;;;;14.35;45.24;100897.06;4994655;28;20088;-67
2023/08/07 08:18:11;;;;;;;7.80;1.20;;;;;;;14.41;42.85;100895.91;4990935;28;20045;-67
2023/08/07 08:20:40;;;;;;;5.53;1.00;;;;;;;16.16;39.45;100895.22;4989425;28;20032;-68
2023/08/07 08:23:06;;;;;;;6.32;0.52;;;;;;;18.18;35.80;100901.88;4992040;28;20087;-67
2023/08/07 08:25:34;;;;;;;5.22;0.73;;;;;;;17.90;34.65;100892.44;4987464;28;20984;-68
2023/08/07 08:28:00;;;;;;;3.75;0.60;;;;;;;17.14;36.48;100909.97;4990005;28;20619;-67
2023/08/07 08:30:26;;;;;;;8.13;1.00;;;;;;;16.23;37.65;100901.81;4969181;28;20317;-67
2023/08/07 08:32:52;;;;;;;8.98;0.85;;;;;;;17.02;36.66;100902.84;4993090;28;20100;-67
2023/08/07 08:35:17;;;;;;;6.10;0.77;;;;;;;16.81;36.53;100903.31;4990828;28;20049;-67
2023/08/07 08:37:43;;;;;;;3.45;0.70;;;;;;;18.77;34.02;100908.25;5003411;28;20049;-67
2023/08/07 08:40:12;;;;;;;4.93;0.43;;;;;;;19.99;31.94;100903.28;4990187;28;20464;-67
2023/08/07 08:42:41;;;;;;;3.15;0.55;;;;;;;18.15;33.78;100911.84;4982363;28;20064;-65
2023/08/07 08:45:12;;;;;;;5.85;0.40;;;;;;;18.83;34.08;100908.63;4992428;28;20037;-67
2023/08/07 08:47:39;;;;;;;3.78;0.77;;;;;;;19.67;31.53;100897.88;4979293;28;20037;-68
2023/08/07 08:50:07;;;;;;;3.35;0.65;;;;;;;18.34;33.25;100904.31;4986626;28;20625;-66
2023/08/07 08:52:35;;;;;;;11.05;1.23;;;;;;;18.37;34.45;100909.38;4981133;28;20657;-69
2023/08/07 08:55:01;;;;;;;6.22;1.48;;;;;;;17.19;35.57;100912.28;4984327;28;20065;-67
2023/08/07 08:57:27;;;;;;;4.95;0.95;;;;;;;17.95;34.60;100907.97;4983643;28;20162;-68
2023/08/07 08:59:53;;;;;;;4.13;0.40;;;;;;;17.35;33.73;100899.72;4989295;28;20247;-67
2023/08/07 09:02:19;;;;;;;9.20;1.17;;;;;;;18.10;32.65;100898.09;4985477;28;20084;-68
2023/08/07 09:04:45;;;;;;;5.45;0.82;;;;;;;19.15;32.00;100905.38;4984141;28;20370;-67
2023/08/07 09:07:14;;;;;;;10.00;0.60;;;;;;;18.97;30.57;100909.44;4986869;28;20475;-66
2023/08/07 09:09:41;;;;;;;6.25;0.65;;;;;;;18.82;31.70;100901.63;4981325;28;20145;-67
2023/08/07 09:12:16;;;;;;;6.05;0.90;;;;;;;17.70;33.73;100911.50;5000502;28;20025;-67
2023/08/07 09:14:44;;;;;;;10.88;1.33;;;;;;;16.58;35.31;100912.72;4981338;28;20038;-66
2023/08/07 09:17:13;;;;;;;7.75;0.50;;;;;;;15.56;38.20;100936.63;5001671;28;20591;-67
2023/08/07 09:19:39;;;;;;;7.45;0.70;;;;;;;14.88;41.92;100938.84;4976574;28;20034;-67
2023/08/07 09:22:04;;;;;;;7.57;1.30;;;;;;;14.65;43.04;100946.25;4987815;28;20552;-67
2023/08/07 09:24:30;;;;;;;7.72;0.90;;;;;;;15.00;43.07;100940.78;4982689;28;20061;-66
2023/08/07 09:26:56;;;;;;;9.85;0.60;;;;;;;14.13;44.66;100960.47;4981530;28;20072;-66
2023/08/07 09:29:22;;;;;;;4.47;0.38;;;;;;;13.73;48.43;100975.69;4989027;28;20625;-66
2023/08/07 09:31:47;;;;;;;4.50;0.75;;;;;;;13.56;51.00;100969.59;4983472;28;20037;-67
2023/08/07 09:34:16;;;;;;;5.97;0.80;;;;;;;13.59;51.21;100969.47;4985981;28;20641;-67
2023/08/07 09:36:49;;;;;;;8.30;1.13;;;;;;;13.98;49.97;100965.69;4985999;28;20143;-66
2023/08/07 09:39:24;;;;;;;15.25;1.88;;;;;;;14.25;48.63;100971.25;4986016;28;20354;-66
2023/08/07 09:41:51;;;;;;;8.38;0.70;;;;;;;14.23;48.41;100965.22;4987141;28;20635;-66
2023/08/07 09:44:16;;;;;;;11.63;1.17;;;;;;;14.43;47.07;100961.53;4986592;28;20474;-66
2023/08/07 09:46:45;;;;;;;9.02;1.05;;;;;;;14.49;46.64;100958.59;4988666;28;20110;-67
2023/08/07 09:49:11;;;;;;;5.03;0.95;;;;;;;14.51;47.00;100973.34;4988357;28;20045;-66
2023/08/07 09:51:42;;;;;;;10.57;1.02;;;;;;;14.68;45.54;100967.16;4986435;28;20408;-69
2023/08/07 09:54:07;;;;;;;13.43;1.40;;;;;;;14.87;44.97;100972.22;4988100;28;20038;-67
2023/08/07 09:56:35;;;;;;;7.78;0.95;;;;;;;14.60;43.08;100965.88;4984736;28;20061;-66
2023/08/07 09:59:01;;;;;;;13.18;1.40;;;;;;;14.87;42.97;100968.75;4989020;28;20416;-66
2023/08/07 10:01:27;;;;;;;3.70;0.50;;;;;;;15.23;42.24;100963.16;4982638;28;20074;-67
2023/08/07 10:03:53;;;;;;;6.57;0.73;;;;;;;15.52;41.00;100966.72;4979567;28;21331;-67
2023/08/07 10:06:19;;;;;;;4.40;0.82;;;;;;;15.55;39.84;100969.19;4987776;28;20030;-67
2023/08/07 10:08:45;;;;;;;9.63;0.68;;;;;;;16.38;38.63;100960.66;4987919;28;20046;-66
2023/08/07 10:11:11;;;;;;;13.98;1.83;;;;;;;16.77;38.26;100959.91;4990904;28;20045;-66
2023/08/07 10:13:38;;;;;;;10.13;1.13;;;;;;;15.79;38.20;100956.34;4982041;28;20061;-67
2023/08/07 10:16:05;;;;;;;4.53;0.70;;;;;;;16.06;38.48;100968.75;4993196;28;20038;-66
2023/08/07 10:18:33;;;;;;;6.25;1.67;;;;;;;15.99;37.02;100949.84;4990226;28;20076;-66
2023/08/07 10:21:01;;;;;;;8.23;0.68;;;;;;;17.18;35.88;100960.75;4992255;28;20607;-66
2023/08/07 10:23:27;;;;;;;3.03;0.40;;;;;;;16.47;32.32;100940.75;4989671;28;20052;-65
2023/08/07 10:25:54;;;;;;;1.17;0.55;;;;;;;15.37;33.60;100952.69;4989493;28;21445;-65
2023/08/07 10:28:24;;;;;;;3.92;0.57;;;;;;;15.20;35.11;100971.22;4984663;28;20137;-66
2023/08/07 10:30:50;;;;;;;7.18;1.13;;;;;;;15.83;35.23;100975.41;4988345;28;20574;-67
2023/08/07 10:33:19;;;;;;;3.30;0.50;;;;;;;16.54;35.68;100971.06;4986508;28;20444;-67
2023/08/07 10:35:48;;;;;;;8.85;0.77;;;;;;;16.78;35.00;100961.59;5000290;28;20471;-66
2023/08/07 10:38:14;;;;;;;7.32;0.80;;;;;;;17.14;33.42;100957.50;4989427;28;20531;-67
2023/08/07 10:41:01;;;;;;;3.70;0.40;;;;;;;17.22;33.06;100960.47;4999776;28;20488;-65
2023/08/07 10:43:28;;;;;;;3.45;0.38;;;;;;;17.23;33.02;100962.16;4988125;28;20436;-66
2023/08/07 10:46:04;;;;;;;2.40;0.30;;;;;;;16.86;33.18;100962.91;4988131;28;20168;-66
2023/08/07 10:48:30;;;;;;;9.20;0.52;;;;;;;17.10;32.20;100973.66;4990694;28;20107;-67
2023/08/07 10:50:57;;;;;;;7.07;0.90;;;;;;;17.34;32.09;100971.16;4970283;28;21856;-67
2023/08/07 10:53:31;;;;;;;3.40;0.43;;;;;;;17.94;30.98;100980.28;4988947;28;20128;-66
2023/08/07 10:55:57;;;;;;;4.32;0.85;;;;;;;18.65;31.78;100978.81;5006597;28;20737;-67
2023/08/07 10:58:30;;;;;;;3.10;0.63;;;;;;;17.21;31.98;100968.50;4987465;28;20695;-66
2023/08/07 11:01:21;;;;;;;2.92;0.40;;;;;;;16.64;34.10;100985.34;4985199;28;20495;-67
2023/08/07 11:03:58;;;;;;;9.02;1.05;;;;;;;15.40;37.55;100991.16;4982686;28;20431;-67
2023/08/07 11:06:30;;;;;;;5.00;0.80;;;;;;;15.08;40.55;101001.75;4991599;28;20033;-67
2023/08/07 11:08:56;;;;;;;4.43;0.68;;;;;;;15.70;40.02;101008.72;4985830;28;20607;-66
2023/08/07 11:11:23;;;;;;;6.38;0.68;;;;;;;15.90;39.23;101003.09;4992251;28;20092;-65
2023/08/07 11:13:48;;;;;;;5.57;0.88;;;;;;;15.81;39.66;101001.03;4986287;28;20037;-67
2023/08/07 11:16:15;;;;;;;6.20;0.98;;;;;;;16.08;39.33;100998.53;5003437;28;20480;-66
2023/08/07 11:18:41;;;;;;;4.97;0.93;;;;;;;16.44;37.92;101010.38;4986732;28;20044;-67
2023/08/07 11:21:08;;;;;;;2.33;0.40;;;;;;;16.40;38.60;100999.19;4989715;28;20038;-66
2023/08/07 11:23:33;;;;;;;4.95;0.30;;;;;;;16.07;38.71;100996.00;4981055;28;20053;-66